createdAt,value
2019-02-06T00:02:06.429Z,2.61
2019-02-06T00:04:34.463Z,2.62
2019-02-06T00:07:02.510Z,2.63
2019-02-06T00:09:30.584Z,2.61
2019-02-06T00:12:00.663Z,2.59
2019-02-06T00:14:28.705Z,2.59
2019-02-06T00:16:57.052Z,2.58
2019-02-06T00:19:25.436Z,2.56
2019-02-06T00:21:53.526Z,2.57
2019-02-06T00:24:21.691Z,2.59
2019-02-06T00:26:50.863Z,2.59
2019-02-06T00:29:18.954Z,2.61
2019-02-06T00:31:47.008Z,2.63
2019-02-06T00:34:15.358Z,2.62
2019-02-06T00:36:43.740Z,2.62
2019-02-06T00:39:11.775Z,2.60
2019-02-06T00:41:39.852Z,2.59
2019-02-06T00:44:08.298Z,2.57
2019-02-06T00:46:36.628Z,2.55
2019-02-06T00:49:04.765Z,2.51
2019-02-06T00:51:33.106Z,2.50
2019-02-06T00:54:01.153Z,2.49
2019-02-06T00:56:29.207Z,2.46
2019-02-06T00:58:57.221Z,2.45
2019-02-06T01:01:25.292Z,2.43
2019-02-06T01:03:53.351Z,2.41
2019-02-06T01:06:21.840Z,2.41
2019-02-06T01:08:50.288Z,2.42
2019-02-06T01:11:18.687Z,2.41
2019-02-06T01:13:47.038Z,2.39
2019-02-06T01:16:15.272Z,2.38
2019-02-06T01:18:43.345Z,2.36
2019-02-06T01:21:11.403Z,2.35
2019-02-06T01:23:40.307Z,2.36
2019-02-06T01:26:08.379Z,2.34
2019-02-06T01:28:36.504Z,2.32
2019-02-06T01:31:10.703Z,2.32
2019-02-06T01:33:40.241Z,2.29
2019-02-06T01:36:08.322Z,2.28
2019-02-06T01:38:36.371Z,2.26
2019-02-06T01:41:04.864Z,2.25
2019-02-06T01:43:32.932Z,2.24
2019-02-06T01:46:00.995Z,2.23
2019-02-06T01:48:29.035Z,2.22
2019-02-06T01:50:57.117Z,2.18
2019-02-06T01:53:25.188Z,2.14
2019-02-06T01:55:53.271Z,2.11
2019-02-06T01:58:21.408Z,2.11
2019-02-06T02:00:49.498Z,2.10
2019-02-06T02:03:17.562Z,2.09
2019-02-06T02:05:45.697Z,2.06
2019-02-06T02:08:13.735Z,2.06
2019-02-06T02:10:42.158Z,2.04
2019-02-06T02:13:10.351Z,2.03
2019-02-06T02:15:40.236Z,2.02
2019-02-06T02:18:08.573Z,2.00
2019-02-06T02:20:38.064Z,1.98
2019-02-06T02:23:06.334Z,1.96
2019-02-06T02:25:34.821Z,1.94
2019-02-06T02:28:03.120Z,1.92
2019-02-06T02:30:53.047Z,1.90
2019-02-06T02:33:21.150Z,1.88
2019-02-06T02:35:49.434Z,1.86
2019-02-06T02:38:17.608Z,1.84
2019-02-06T02:40:46.404Z,1.83
2019-02-06T02:43:14.477Z,1.78
2019-02-06T02:45:43.743Z,1.76
2019-02-06T02:48:11.826Z,1.75
2019-02-06T02:50:41.026Z,1.73
2019-02-06T02:53:09.090Z,1.72
2019-02-06T02:55:37.367Z,1.69
2019-02-06T02:58:07.555Z,1.69
2019-02-06T03:00:55.268Z,1.67
2019-02-06T03:03:36.443Z,1.65
2019-02-06T03:06:04.702Z,1.62
2019-02-06T03:08:32.769Z,1.61
2019-02-06T03:11:01.174Z,1.59
2019-02-06T03:13:29.227Z,1.59
2019-02-06T03:15:57.474Z,1.58
2019-02-06T03:18:25.597Z,1.57
2019-02-06T03:20:53.654Z,1.56
2019-02-06T03:23:22.221Z,1.57
2019-02-06T03:25:50.299Z,1.56
2019-02-06T03:28:18.688Z,1.55
2019-02-06T03:30:47.729Z,1.52
2019-02-06T03:33:15.917Z,1.50
2019-02-06T03:35:43.982Z,1.48
2019-02-06T03:38:12.448Z,1.45
2019-02-06T03:40:41.106Z,1.42
2019-02-06T03:43:09.500Z,1.39
2019-02-06T03:45:37.891Z,1.39
2019-02-06T03:48:05.967Z,1.38
2019-02-06T03:50:34.170Z,1.38
2019-02-06T03:53:02.232Z,1.37
2019-02-06T03:55:30.284Z,1.34
2019-02-06T03:57:58.747Z,1.33
2019-02-06T04:00:26.894Z,1.34
2019-02-06T04:02:54.955Z,1.32
2019-02-06T04:05:23.349Z,1.32
2019-02-06T04:07:51.413Z,1.31
2019-02-06T04:10:19.649Z,1.33
2019-02-06T04:12:48.025Z,1.33
2019-02-06T04:15:17.060Z,1.32
2019-02-06T04:17:47.690Z,1.31
2019-02-06T04:20:17.388Z,1.30
2019-02-06T04:22:46.557Z,1.28
2019-02-06T04:25:15.482Z,1.28
2019-02-06T04:27:43.773Z,1.26
2019-02-06T04:30:13.360Z,1.25
2019-02-06T04:32:41.435Z,1.23
2019-02-06T04:35:11.051Z,1.24
2019-02-06T04:37:39.106Z,1.21
2019-02-06T04:40:17.831Z,1.19
2019-02-06T04:42:46.314Z,1.19
2019-02-06T04:45:17.059Z,1.17
2019-02-06T04:47:45.405Z,1.15
2019-02-06T04:50:15.832Z,1.14
2019-02-06T04:52:45.221Z,1.13
2019-02-06T04:55:14.260Z,1.13
2019-02-06T04:57:42.544Z,1.12
2019-02-06T05:00:21.046Z,1.11
2019-02-06T05:02:49.186Z,1.12
2019-02-06T05:05:17.227Z,1.11
2019-02-06T05:07:45.318Z,1.09
2019-02-06T05:10:13.423Z,1.08
2019-02-06T05:12:41.491Z,1.08
2019-02-06T05:15:10.235Z,1.06
2019-02-06T05:17:38.353Z,1.03
2019-02-06T05:20:17.692Z,0.99
2019-02-06T05:22:45.778Z,0.98
2019-02-06T05:25:14.102Z,0.95
2019-02-06T05:27:42.492Z,0.96
2019-02-06T05:30:11.970Z,0.94
2019-02-06T05:32:43.012Z,0.94
2019-02-06T05:35:10.376Z,0.93
2019-02-06T05:37:38.447Z,0.94
2019-02-06T05:40:07.194Z,0.92
2019-02-06T05:42:35.521Z,0.93
2019-02-06T05:45:06.518Z,0.91
2019-02-06T05:47:35.572Z,0.90
2019-02-06T05:50:04.709Z,0.89
2019-02-06T05:52:32.734Z,0.88
2019-02-06T05:55:04.253Z,0.89
2019-02-06T05:57:30.739Z,0.87
2019-02-06T05:59:58.790Z,0.85
2019-02-06T06:02:26.911Z,0.84
2019-02-06T06:04:54.971Z,0.81
2019-02-06T06:07:23.031Z,0.80
2019-02-06T06:09:51.095Z,0.79
2019-02-06T06:12:19.420Z,0.78
2019-02-06T06:14:47.729Z,0.76
2019-02-06T06:17:15.779Z,0.76
2019-02-06T06:19:44.118Z,0.75
2019-02-06T06:22:13.087Z,0.74
2019-02-06T06:24:41.161Z,0.73
2019-02-06T06:27:09.211Z,0.71
2019-02-06T06:29:37.274Z,0.69
2019-02-06T06:32:05.417Z,0.69
2019-02-06T06:34:33.474Z,0.67
2019-02-06T06:37:01.959Z,0.67
2019-02-06T06:39:30.152Z,0.66
2019-02-06T06:41:58.402Z,0.65
2019-02-06T06:44:26.469Z,0.63
2019-02-06T06:46:54.517Z,0.63
2019-02-06T06:49:22.719Z,0.61
2019-02-06T06:51:51.102Z,0.60
2019-02-06T06:54:19.174Z,0.59
2019-02-06T06:56:47.291Z,0.57
2019-02-06T06:59:15.370Z,0.56
2019-02-06T07:01:43.549Z,0.56
2019-02-06T07:04:12.915Z,0.55
2019-02-06T07:06:40.960Z,0.53
2019-02-06T07:09:09.510Z,0.53
2019-02-06T07:11:37.548Z,0.54
2019-02-06T07:14:06.013Z,0.54
2019-02-06T07:16:34.169Z,0.55
2019-02-06T07:19:02.259Z,0.57
2019-02-06T07:21:30.375Z,0.60
2019-02-06T07:23:58.582Z,0.64
2019-02-06T07:26:27.036Z,0.68
2019-02-06T07:28:55.095Z,0.73
2019-02-06T07:31:23.283Z,0.78
2019-02-06T07:33:51.754Z,0.82
2019-02-06T07:36:19.839Z,0.86
2019-02-06T07:38:48.319Z,0.90
2019-02-06T07:41:16.386Z,0.94
2019-02-06T07:43:44.859Z,1.01
2019-02-06T07:46:14.163Z,1.13
2019-02-06T07:48:42.274Z,1.27
2019-02-06T07:51:10.573Z,1.41
2019-02-06T07:53:38.925Z,1.57
2019-02-06T07:56:06.993Z,1.73
2019-02-06T07:58:35.047Z,1.97
2019-02-06T08:01:03.734Z,2.21
2019-02-06T08:03:31.890Z,2.50
2019-02-06T08:06:00.343Z,2.77
2019-02-06T08:08:36.273Z,3.07
2019-02-06T08:10:58.762Z,3.38
2019-02-06T08:13:26.821Z,3.70
2019-02-06T08:15:54.847Z,4.01
2019-02-06T08:18:22.901Z,4.33
2019-02-06T08:20:50.938Z,4.67
2019-02-06T08:23:19.023Z,4.91
2019-02-06T08:25:47.052Z,5.18
2019-02-06T08:28:15.142Z,5.45
2019-02-06T08:30:43.583Z,5.77
2019-02-06T08:33:12.309Z,6.09
2019-02-06T08:35:40.341Z,6.46
2019-02-06T08:38:08.494Z,6.82
2019-02-06T08:40:36.541Z,7.11
2019-02-06T08:43:04.824Z,7.38
2019-02-06T08:45:32.875Z,7.65
2019-02-06T08:48:01.158Z,7.99
2019-02-06T08:50:29.638Z,8.24
2019-02-06T08:52:58.119Z,8.24
2019-02-06T08:55:28.051Z,8.30
2019-02-06T08:57:56.111Z,8.49
2019-02-06T09:00:36.822Z,8.70
2019-02-06T09:03:07.359Z,8.70
2019-02-06T09:05:36.748Z,8.64
2019-02-06T09:08:05.416Z,8.77
2019-02-06T09:10:33.486Z,9.08
2019-02-06T09:13:02.136Z,9.39
2019-02-06T09:15:31.197Z,9.61
2019-02-06T09:17:59.322Z,9.96
2019-02-06T09:20:29.639Z,10.31
2019-02-06T09:22:58.403Z,10.70
2019-02-06T09:25:28.261Z,11.03
2019-02-06T09:27:56.416Z,11.36
2019-02-06T09:30:26.555Z,11.66
2019-02-06T09:32:55.240Z,11.94
2019-02-06T09:35:23.622Z,12.21
2019-02-06T09:37:52.080Z,12.45
2019-02-06T09:40:23.370Z,12.64
2019-02-06T09:42:51.434Z,12.81
2019-02-06T09:45:19.602Z,12.97
2019-02-06T09:47:49.148Z,13.11
2019-02-06T09:50:27.026Z,13.28
2019-02-06T09:52:55.255Z,13.52
2019-02-06T09:55:23.327Z,13.73
2019-02-06T09:57:51.655Z,13.90
2019-02-06T10:00:23.281Z,14.14
2019-02-06T10:02:51.457Z,14.32
2019-02-06T10:05:20.050Z,14.35
2019-02-06T10:07:48.082Z,14.10
2019-02-06T10:10:18.513Z,14.00
2019-02-06T10:12:46.780Z,13.83
2019-02-06T10:15:19.041Z,13.46
2019-02-06T10:17:47.250Z,13.35
2019-02-06T10:20:16.783Z,13.23
2019-02-06T10:22:44.844Z,13.21
2019-02-06T10:25:13.333Z,13.23
2019-02-06T10:27:41.376Z,13.30
2019-02-06T10:30:20.230Z,13.30
2019-02-06T10:32:48.277Z,13.35
2019-02-06T10:35:16.826Z,13.47
2019-02-06T10:37:44.859Z,13.66
2019-02-06T10:40:14.867Z,13.84
2019-02-06T10:42:42.913Z,14.04
2019-02-06T10:45:11.359Z,14.27
2019-02-06T10:47:39.372Z,14.53
2019-02-06T10:50:09.611Z,14.84
2019-02-06T10:52:37.628Z,15.19
2019-02-06T10:55:06.537Z,15.54
2019-02-06T10:57:34.595Z,15.92
2019-02-06T11:00:08.336Z,16.31
2019-02-06T11:02:36.721Z,16.54
2019-02-06T11:05:05.201Z,16.67
2019-02-06T11:07:33.593Z,16.86
2019-02-06T11:10:03.864Z,17.11
2019-02-06T11:12:31.996Z,17.15
2019-02-06T11:15:00.901Z,17.07
2019-02-06T11:17:28.978Z,17.03
2019-02-06T11:19:57.437Z,17.25
2019-02-06T11:22:26.296Z,17.46
2019-02-06T11:24:54.443Z,17.59
2019-02-06T11:27:22.737Z,17.82
2019-02-06T11:29:51.440Z,17.94
2019-02-06T11:32:19.526Z,18.17
2019-02-06T11:34:47.651Z,18.47
2019-02-06T11:37:15.819Z,18.79
2019-02-06T11:39:57.292Z,19.24
2019-02-06T11:42:15.904Z,19.69
2019-02-06T11:44:43.982Z,20.06
2019-02-06T11:47:12.004Z,20.38
2019-02-06T11:49:42.274Z,20.74
2019-02-06T11:52:10.275Z,21.07
2019-02-06T11:54:38.742Z,21.24
2019-02-06T11:57:07.027Z,21.32
2019-02-06T11:59:36.422Z,21.43
2019-02-06T12:02:04.785Z,21.65
2019-02-06T12:04:32.850Z,21.92
2019-02-06T12:07:00.906Z,22.17
2019-02-06T12:09:29.084Z,22.45
2019-02-06T12:11:57.520Z,22.77
2019-02-06T12:14:25.773Z,23.09
2019-02-06T12:16:54.378Z,23.35
2019-02-06T12:19:22.517Z,23.53
2019-02-06T12:21:52.693Z,23.63
2019-02-06T12:24:20.817Z,23.78
2019-02-06T12:26:49.187Z,23.96
2019-02-06T12:29:17.448Z,24.17
2019-02-06T12:31:45.520Z,24.24
2019-02-06T12:34:15.695Z,24.13
2019-02-06T12:36:43.741Z,24.01
2019-02-06T12:39:11.791Z,24.15
2019-02-06T12:41:39.934Z,24.37
2019-02-06T12:44:07.965Z,24.59
2019-02-06T12:46:36.093Z,24.70
2019-02-06T12:49:04.826Z,24.58
2019-02-06T12:51:33.000Z,24.69
2019-02-06T12:54:01.154Z,24.86
2019-02-06T12:56:29.216Z,25.00
2019-02-06T12:58:57.388Z,25.05
2019-02-06T13:01:25.593Z,25.11
2019-02-06T13:03:53.760Z,25.19
2019-02-06T13:06:22.217Z,25.24
2019-02-06T13:08:50.240Z,25.28
2019-02-06T13:11:18.371Z,25.23
2019-02-06T13:13:46.438Z,24.96
2019-02-06T13:16:16.001Z,24.92
2019-02-06T13:18:44.111Z,25.04
2019-02-06T13:21:12.175Z,25.18
2019-02-06T13:23:40.715Z,25.32
2019-02-06T13:26:08.883Z,25.47
2019-02-06T13:28:36.912Z,25.52
2019-02-06T13:31:04.938Z,25.13
2019-02-06T13:33:33.050Z,25.10
2019-02-06T13:36:01.769Z,25.18
2019-02-06T13:38:30.014Z,25.22
2019-02-06T13:41:12.543Z,25.25
2019-02-06T13:43:56.580Z,25.31
2019-02-06T13:46:26.905Z,25.37
2019-02-06T13:48:55.240Z,25.24
2019-02-06T13:51:23.278Z,25.14
2019-02-06T13:53:51.639Z,25.01
2019-02-06T13:56:19.664Z,24.82
2019-02-06T13:58:47.759Z,24.65
2019-02-06T14:01:25.438Z,24.64
2019-02-06T14:03:45.836Z,24.65
2019-02-06T14:06:15.802Z,24.49
2019-02-06T14:08:43.948Z,24.33
2019-02-06T14:11:12.504Z,24.24
2019-02-06T14:13:40.505Z,24.23
2019-02-06T14:16:09.232Z,24.26
2019-02-06T14:18:37.372Z,24.27
2019-02-06T14:21:05.781Z,24.27
2019-02-06T14:24:02.334Z,24.22
2019-02-06T14:26:53.891Z,24.12
2019-02-06T14:30:00.956Z,23.99
2019-02-06T14:33:57.525Z,23.77
2019-02-06T14:37:19.363Z,23.64
2019-02-06T14:41:08.671Z,23.49
2019-02-06T14:44:33.672Z,23.13
2019-02-06T14:48:12.342Z,22.77
2019-02-06T14:51:50.953Z,22.54
2019-02-06T14:54:51.957Z,22.36
2019-02-06T14:58:29.380Z,22.06
2019-02-06T15:02:16.027Z,21.83
2019-02-06T15:05:42.754Z,21.59
2019-02-06T15:08:53.199Z,21.41
2019-02-06T15:12:48.893Z,21.29
2019-02-06T15:16:30.460Z,21.27
2019-02-06T15:19:23.488Z,21.13
2019-02-06T15:22:42.456Z,21.06
2019-02-06T15:25:53.560Z,20.97
2019-02-06T15:29:06.016Z,20.80
2019-02-06T15:32:34.159Z,20.37
2019-02-06T15:35:43.589Z,19.83
2019-02-06T15:39:00.805Z,19.18
2019-02-06T15:42:08.203Z,18.44
2019-02-06T15:45:18.681Z,17.78
2019-02-06T15:48:34.903Z,17.34
2019-02-06T15:52:06.825Z,17.04
2019-02-06T15:55:24.689Z,16.74
2019-02-06T15:58:40.988Z,16.46
2019-02-06T16:02:08.052Z,16.26
2019-02-06T16:05:42.857Z,16.10
2019-02-06T16:08:51.959Z,15.95
2019-02-06T16:12:05.396Z,15.79
2019-02-06T16:15:01.587Z,15.67
2019-02-06T16:18:17.884Z,15.55
2019-02-06T16:21:53.278Z,15.45
2019-02-06T16:24:53.590Z,15.33
2019-02-06T16:28:16.526Z,15.14
2019-02-06T16:31:34.772Z,14.97
2019-02-06T16:34:58.994Z,14.75
2019-02-06T16:38:16.404Z,14.51
2019-02-06T16:41:53.361Z,14.27
2019-02-06T16:45:43.532Z,14.03
2019-02-06T16:48:53.676Z,13.76
2019-02-06T16:52:23.358Z,13.45
2019-02-06T16:55:39.866Z,13.19
2019-02-06T16:59:46.991Z,12.91
2019-02-06T17:03:32.137Z,12.68
2019-02-06T17:06:50.877Z,12.35
2019-02-06T17:09:51.462Z,12.04
2019-02-06T17:13:02.408Z,11.78
2019-02-06T17:16:22.093Z,11.55
2019-02-06T17:20:12.674Z,11.34
2019-02-06T17:23:38.624Z,11.11
2019-02-06T17:27:16.420Z,10.84
2019-02-06T17:30:37.584Z,10.59
2019-02-06T17:34:14.612Z,10.33
2019-02-06T17:37:49.615Z,10.07
2019-02-06T17:41:24.661Z,9.80
2019-02-06T17:44:47.708Z,9.55
2019-02-06T17:48:14.596Z,9.30
2019-02-06T17:51:51.253Z,9.05
2019-02-06T17:54:49.075Z,8.77
2019-02-06T17:57:17.380Z,8.56
2019-02-06T17:59:45.583Z,8.38
2019-02-06T18:02:13.859Z,8.29
2019-02-06T18:04:44.907Z,8.19
2019-02-06T18:07:14.145Z,8.07
2019-02-06T18:09:42.329Z,7.93
2019-02-06T18:12:10.719Z,7.79
2019-02-06T18:14:38.856Z,7.66
2019-02-06T18:17:06.914Z,7.57
2019-02-06T18:19:40.034Z,7.49
2019-02-06T18:22:09.125Z,7.43
2019-02-06T18:24:37.667Z,7.35
2019-02-06T18:27:06.755Z,7.27
2019-02-06T18:29:34.991Z,7.20
2019-02-06T18:32:04.262Z,7.14
2019-02-06T18:34:32.338Z,7.08
2019-02-06T18:37:00.788Z,7.01
2019-02-06T18:39:28.987Z,6.96
2019-02-06T18:41:57.241Z,6.90
2019-02-06T18:44:25.938Z,6.84
2019-02-06T18:46:56.828Z,6.77
2019-02-06T18:49:25.403Z,6.68
2019-02-06T18:51:55.026Z,6.61
2019-02-06T18:54:24.280Z,6.53
2019-02-06T18:56:52.452Z,6.46
2019-02-06T18:59:20.675Z,6.36
2019-02-06T19:01:49.511Z,6.23
2019-02-06T19:04:20.147Z,6.06
2019-02-06T19:06:48.985Z,5.90
2019-02-06T19:09:17.759Z,5.78
2019-02-06T19:11:46.469Z,5.70
2019-02-06T19:14:14.896Z,5.63
2019-02-06T19:16:44.654Z,5.58
2019-02-06T19:19:12.982Z,5.51
2019-02-06T19:21:41.767Z,5.45
2019-02-06T19:24:09.877Z,5.39
2019-02-06T19:26:38.415Z,5.33
2019-02-06T19:29:07.356Z,5.24
2019-02-06T19:31:35.974Z,5.16
2019-02-06T19:34:05.238Z,5.09
2019-02-06T19:36:33.404Z,5.02
2019-02-06T19:39:01.461Z,4.98
2019-02-06T19:41:31.293Z,4.92
2019-02-06T19:43:59.603Z,4.87
2019-02-06T19:46:27.889Z,4.84
2019-02-06T19:48:55.962Z,4.82
2019-02-06T19:51:25.092Z,4.79
2019-02-06T19:53:53.292Z,4.78
2019-02-06T19:56:22.111Z,4.75
2019-02-06T19:58:52.133Z,4.75
2019-02-06T20:01:20.364Z,4.72
2019-02-06T20:03:48.587Z,4.69
2019-02-06T20:06:28.231Z,4.64
2019-02-06T20:09:00.132Z,4.59
2019-02-06T20:11:29.399Z,4.54
2019-02-06T20:13:58.090Z,4.49
2019-02-06T20:16:26.532Z,4.47
2019-02-06T20:18:54.599Z,4.44
2019-02-06T20:21:23.077Z,4.40
2019-02-06T20:23:51.752Z,4.36
2019-02-06T20:26:20.385Z,4.31
2019-02-06T20:28:48.666Z,4.27
2019-02-06T20:31:17.289Z,4.23
2019-02-06T20:33:45.629Z,4.21
2019-02-06T20:36:13.698Z,4.17
2019-02-06T20:38:41.764Z,4.13
2019-02-06T20:41:10.019Z,4.10
2019-02-06T20:43:38.257Z,4.06
2019-02-06T20:46:06.326Z,4.02
2019-02-06T20:48:34.667Z,4.00
2019-02-06T20:51:04.254Z,3.99
2019-02-06T20:53:33.359Z,3.94
2019-02-06T20:56:03.355Z,3.90
2019-02-06T20:58:31.589Z,3.86
2019-02-06T21:00:59.755Z,3.85
2019-02-06T21:03:29.360Z,3.83
2019-02-06T21:05:57.419Z,3.81
2019-02-06T21:08:25.554Z,3.83
2019-02-06T21:10:55.216Z,3.85
2019-02-06T21:13:32.714Z,3.86
2019-02-06T21:15:53.886Z,3.86
2019-02-06T21:18:23.633Z,3.81
2019-02-06T21:20:52.128Z,3.77
2019-02-06T21:23:20.388Z,3.73
2019-02-06T21:25:48.409Z,3.69
2019-02-06T21:28:19.401Z,3.67
2019-02-06T21:30:49.292Z,3.65
2019-02-06T21:33:17.740Z,3.63
2019-02-06T21:35:46.171Z,3.61
2019-02-06T21:38:14.457Z,3.55
2019-02-06T21:40:42.939Z,3.53
2019-02-06T21:43:11.185Z,3.51
2019-02-06T21:45:39.578Z,3.50
2019-02-06T21:48:08.010Z,3.50
2019-02-06T21:50:38.949Z,3.48
2019-02-06T21:53:07.189Z,3.47
2019-02-06T21:55:36.696Z,3.45
2019-02-06T21:58:05.488Z,3.43
2019-02-06T22:00:37.914Z,3.40
2019-02-06T22:03:06.112Z,3.36
2019-02-06T22:05:34.436Z,3.32
2019-02-06T22:08:03.119Z,3.31
2019-02-06T22:10:32.378Z,3.27
2019-02-06T22:13:00.783Z,3.23
2019-02-06T22:15:30.705Z,3.19
2019-02-06T22:18:00.739Z,3.17
2019-02-06T22:20:29.432Z,3.16
2019-02-06T22:22:58.094Z,3.16
2019-02-06T22:25:26.373Z,3.15
2019-02-06T22:27:54.551Z,3.13
2019-02-06T22:30:25.063Z,3.09
2019-02-06T22:32:53.141Z,3.09
2019-02-06T22:35:22.047Z,3.08
2019-02-06T22:37:53.299Z,3.07
2019-02-06T22:40:22.877Z,3.05
2019-02-06T22:42:51.012Z,3.03
2019-02-06T22:45:21.954Z,3.04
2019-02-06T22:47:50.915Z,3.02
2019-02-06T22:50:23.213Z,3.02
2019-02-06T22:52:51.590Z,3.01
2019-02-06T22:55:19.975Z,3.00
2019-02-06T22:57:48.176Z,2.96
2019-02-06T23:01:06.421Z,2.96
2019-02-06T23:03:39.087Z,2.93
2019-02-06T23:06:08.924Z,2.88
2019-02-06T23:08:37.305Z,2.82
2019-02-06T23:11:07.002Z,2.78
2019-02-06T23:13:35.705Z,2.79
2019-02-06T23:16:04.444Z,2.74
2019-02-06T23:18:32.659Z,2.72
2019-02-06T23:21:00.713Z,2.71
2019-02-06T23:23:29.885Z,2.73
2019-02-06T23:26:00.264Z,2.76
2019-02-06T23:28:28.384Z,2.77
2019-02-06T23:30:56.564Z,2.77
2019-02-06T23:33:24.677Z,2.77
2019-02-06T23:35:52.739Z,2.80
2019-02-06T23:38:20.880Z,2.79
2019-02-06T23:40:49.238Z,2.80
2019-02-06T23:43:18.503Z,2.79
2019-02-06T23:45:46.676Z,2.77
2019-02-06T23:48:14.873Z,2.73
2019-02-06T23:50:44.038Z,2.74
2019-02-06T23:53:12.268Z,2.74
2019-02-06T23:55:41.802Z,2.71
2019-02-06T23:58:09.971Z,2.70
